Cato Island, Australia
Current Conditions -  °F | °C
As of 12:00 AM on Thursday 27 Nov 2014 (Local Time) from YBUD Reporting Station
Clear Clear  
Wind Chill: 23°   Ceiling: Unl
Heat Index: 23°   Visibility: 6mi
Dew Point: 20°   Wind: 8mph
Humidity: 83%   Direction: 80°E
Pressure: 30"   Gusts: NA
Location:  23.25°S, 155.53°E
Report Text: YBUD 261400Z AUTO 08007KT 9999 // NCD 23/20 Q1016
Loading
Personal Weather Stations






























Interactive Weather Map New forecast layout! Learn more

10-Day Weather Forecast

Advertisements
Track Severe Weather on mobile